sensor_id;sensor_type;location;lat;lon;timestamp;P1;durP1;ratioP1;P2;durP2;ratioP2
58089;SDS011;45149;50.976;6.120;2022-12-19T00:01:26;249.25;;;166.18;;
58089;SDS011;45149;50.976;6.120;2022-12-19T00:04:05;245.18;;;164.20;;
58089;SDS011;45149;50.976;6.120;2022-12-19T00:06:32;239.32;;;159.52;;
58089;SDS011;45149;50.976;6.120;2022-12-19T00:08:58;241.23;;;160.80;;
58089;SDS011;45149;50.976;6.120;2022-12-19T00:11:24;240.10;;;162.13;;
58089;SDS011;45149;50.976;6.120;2022-12-19T00:13:50;239.43;;;160.52;;
58089;SDS011;45149;50.976;6.120;2022-12-19T00:16:17;237.75;;;158.93;;
58089;SDS011;45149;50.976;6.120;2022-12-19T00:18:47;236.37;;;157.77;;
58089;SDS011;45149;50.976;6.120;2022-12-19T00:21:14;231.07;;;152.00;;
58089;SDS011;45149;50.976;6.120;2022-12-19T00:23:41;237.60;;;159.80;;
58089;SDS011;45149;50.976;6.120;2022-12-19T00:26:11;234.13;;;153.88;;
58089;SDS011;45149;50.976;6.120;2022-12-19T00:28:38;229.02;;;154.60;;
58089;SDS011;45149;50.976;6.120;2022-12-19T00:31:05;232.60;;;154.57;;
58089;SDS011;45149;50.976;6.120;2022-12-19T00:33:31;232.10;;;155.00;;
58089;SDS011;45149;50.976;6.120;2022-12-19T00:35:57;232.48;;;157.20;;
58089;SDS011;45149;50.976;6.120;2022-12-19T00:38:23;236.00;;;156.85;;
58089;SDS011;45149;50.976;6.120;2022-12-19T00:40:49;230.02;;;154.35;;
58089;SDS011;45149;50.976;6.120;2022-12-19T00:43:14;224.68;;;151.27;;
58089;SDS011;45149;50.976;6.120;2022-12-19T00:45:39;227.70;;;151.45;;
58089;SDS011;45149;50.976;6.120;2022-12-19T00:48:05;225.63;;;152.60;;
58089;SDS011;45149;50.976;6.120;2022-12-19T00:50:30;226.02;;;151.02;;
58089;SDS011;45149;50.976;6.120;2022-12-19T00:52:55;226.10;;;150.82;;
58089;SDS011;45149;50.976;6.120;2022-12-19T00:55:21;223.80;;;149.07;;
58089;SDS011;45149;50.976;6.120;2022-12-19T00:57:46;225.73;;;151.93;;
58089;SDS011;45149;50.976;6.120;2022-12-19T01:00:12;229.18;;;154.13;;
58089;SDS011;45149;50.976;6.120;2022-12-19T01:02:37;222.30;;;149.93;;
58089;SDS011;45149;50.976;6.120;2022-12-19T01:05:03;219.32;;;148.55;;
58089;SDS011;45149;50.976;6.120;2022-12-19T01:07:28;215.05;;;144.23;;
58089;SDS011;45149;50.976;6.120;2022-12-19T01:09:54;219.00;;;148.43;;
58089;SDS011;45149;50.976;6.120;2022-12-19T01:12:19;219.48;;;145.25;;
58089;SDS011;45149;50.976;6.120;2022-12-19T01:15:03;224.38;;;148.27;;
58089;SDS011;45149;50.976;6.120;2022-12-19T01:17:29;219.10;;;146.05;;
58089;SDS011;45149;50.976;6.120;2022-12-19T01:19:54;210.98;;;142.88;;
58089;SDS011;45149;50.976;6.120;2022-12-19T01:22:19;215.98;;;145.30;;
58089;SDS011;45149;50.976;6.120;2022-12-19T01:24:45;210.45;;;143.48;;
58089;SDS011;45149;50.976;6.120;2022-12-19T01:27:10;212.55;;;142.98;;
58089;SDS011;45149;50.976;6.120;2022-12-19T01:29:35;212.35;;;143.52;;
58089;SDS011;45149;50.976;6.120;2022-12-19T01:32:01;211.88;;;143.05;;
58089;SDS011;45149;50.976;6.120;2022-12-19T01:34:26;205.82;;;139.68;;
58089;SDS011;45149;50.976;6.120;2022-12-19T01:36:52;206.95;;;141.43;;
58089;SDS011;45149;50.976;6.120;2022-12-19T01:39:17;209.75;;;141.32;;
58089;SDS011;45149;50.976;6.120;2022-12-19T01:41:42;210.38;;;142.60;;
58089;SDS011;45149;50.976;6.120;2022-12-19T01:44:08;205.15;;;138.20;;
58089;SDS011;45149;50.976;6.120;2022-12-19T01:49:00;203.65;;;137.60;;
58089;SDS011;45149;50.976;6.120;2022-12-19T01:51:42;211.07;;;140.68;;
58089;SDS011;45149;50.976;6.120;2022-12-19T01:54:14;203.02;;;138.68;;
58089;SDS011;45149;50.976;6.120;2022-12-19T01:56:45;195.70;;;132.18;;
58089;SDS011;45149;50.976;6.120;2022-12-19T01:59:15;205.27;;;136.60;;
58089;SDS011;45149;50.976;6.120;2022-12-19T02:01:44;200.65;;;136.18;;
58089;SDS011;45149;50.976;6.120;2022-12-19T02:04:10;197.65;;;133.70;;
58089;SDS011;45149;50.976;6.120;2022-12-19T02:06:37;205.70;;;138.70;;
58089;SDS011;45149;50.976;6.120;2022-12-19T02:09:04;196.73;;;134.90;;
58089;SDS011;45149;50.976;6.120;2022-12-19T02:11:30;197.48;;;135.40;;
58089;SDS011;45149;50.976;6.120;2022-12-19T02:13:56;197.07;;;133.50;;
58089;SDS011;45149;50.976;6.120;2022-12-19T02:16:27;193.45;;;132.43;;
58089;SDS011;45149;50.976;6.120;2022-12-19T02:22:22;193.38;;;133.05;;
58089;SDS011;45149;50.976;6.120;2022-12-19T02:27:31;198.27;;;134.80;;
58089;SDS011;45149;50.976;6.120;2022-12-19T02:30:34;193.65;;;131.90;;
58089;SDS011;45149;50.976;6.120;2022-12-19T02:35:50;188.40;;;128.88;;
58089;SDS011;45149;50.976;6.120;2022-12-19T02:38:39;188.18;;;129.73;;
58089;SDS011;45149;50.976;6.120;2022-12-19T02:44:08;180.65;;;124.03;;
58089;SDS011;45149;50.976;6.120;2022-12-19T02:46:50;179.48;;;125.25;;
58089;SDS011;45149;50.976;6.120;2022-12-19T02:49:17;179.93;;;123.68;;
58089;SDS011;45149;50.976;6.120;2022-12-19T02:51:42;176.85;;;123.05;;
58089;SDS011;45149;50.976;6.120;2022-12-19T02:54:08;176.30;;;119.78;;
58089;SDS011;45149;50.976;6.120;2022-12-19T02:56:42;171.52;;;120.78;;
58089;SDS011;45149;50.976;6.120;2022-12-19T03:05:07;168.30;;;116.57;;
58089;SDS011;45149;50.976;6.120;2022-12-19T03:10:32;169.53;;;118.77;;
58089;SDS011;45149;50.976;6.120;2022-12-19T03:13:13;168.98;;;117.43;;
58089;SDS011;45149;50.976;6.120;2022-12-19T03:15:45;164.02;;;113.63;;
58089;SDS011;45149;50.976;6.120;2022-12-19T03:18:11;161.32;;;113.50;;
58089;SDS011;45149;50.976;6.120;2022-12-19T03:23:28;156.65;;;111.80;;
58089;SDS011;45149;50.976;6.120;2022-12-19T03:25:55;160.18;;;112.35;;
58089;SDS011;45149;50.976;6.120;2022-12-19T03:28:26;158.17;;;111.70;;
58089;SDS011;45149;50.976;6.120;2022-12-19T03:30:58;155.93;;;111.35;;
58089;SDS011;45149;50.976;6.120;2022-12-19T03:33:26;164.80;;;113.53;;
58089;SDS011;45149;50.976;6.120;2022-12-19T03:35:56;158.52;;;109.82;;
58089;SDS011;45149;50.976;6.120;2022-12-19T03:38:24;157.38;;;109.68;;
58089;SDS011;45149;50.976;6.120;2022-12-19T03:40:51;150.52;;;108.70;;
58089;SDS011;45149;50.976;6.120;2022-12-19T03:43:18;155.30;;;108.03;;
58089;SDS011;45149;50.976;6.120;2022-12-19T03:45:52;149.30;;;105.80;;
58089;SDS011;45149;50.976;6.120;2022-12-19T03:49:01;153.52;;;107.35;;
58089;SDS011;45149;50.976;6.120;2022-12-19T03:51:28;147.68;;;105.85;;
58089;SDS011;45149;50.976;6.120;2022-12-19T03:59:20;145.43;;;104.22;;
58089;SDS011;45149;50.976;6.120;2022-12-19T04:01:54;146.23;;;103.90;;
58089;SDS011;45149;50.976;6.120;2022-12-19T04:04:21;144.98;;;100.88;;
58089;SDS011;45149;50.976;6.120;2022-12-19T04:06:49;143.60;;;101.85;;
58089;SDS011;45149;50.976;6.120;2022-12-19T04:09:14;138.50;;;100.20;;
58089;SDS011;45149;50.976;6.120;2022-12-19T04:11:43;142.35;;;101.75;;
58089;SDS011;45149;50.976;6.120;2022-12-19T04:14:27;144.48;;;102.28;;
58089;SDS011;45149;50.976;6.120;2022-12-19T04:22:44;137.05;;;98.43;;
58089;SDS011;45149;50.976;6.120;2022-12-19T04:25:17;128.98;;;93.82;;
58089;SDS011;45149;50.976;6.120;2022-12-19T04:27:47;139.32;;;99.60;;
58089;SDS011;45149;50.976;6.120;2022-12-19T04:30:18;134.52;;;96.97;;
58089;SDS011;45149;50.976;6.120;2022-12-19T04:32:44;133.30;;;96.53;;
58089;SDS011;45149;50.976;6.120;2022-12-19T04:35:10;131.60;;;96.40;;
58089;SDS011;45149;50.976;6.120;2022-12-19T04:37:35;134.05;;;97.38;;
58089;SDS011;45149;50.976;6.120;2022-12-19T04:40:01;130.98;;;93.05;;
58089;SDS011;45149;50.976;6.120;2022-12-19T04:42:27;130.43;;;93.90;;
58089;SDS011;45149;50.976;6.120;2022-12-19T04:44:52;132.43;;;93.55;;
58089;SDS011;45149;50.976;6.120;2022-12-19T04:47:18;128.32;;;92.97;;
58089;SDS011;45149;50.976;6.120;2022-12-19T04:49:43;126.20;;;91.88;;
58089;SDS011;45149;50.976;6.120;2022-12-19T04:52:08;125.95;;;91.00;;
58089;SDS011;45149;50.976;6.120;2022-12-19T04:54:34;126.65;;;91.97;;
58089;SDS011;45149;50.976;6.120;2022-12-19T04:56:59;154.00;;;116.00;;
58089;SDS011;45149;50.976;6.120;2022-12-19T04:59:24;134.35;;;99.25;;
58089;SDS011;45149;50.976;6.120;2022-12-19T05:01:50;134.70;;;99.28;;
58089;SDS011;45149;50.976;6.120;2022-12-19T05:04:15;128.50;;;95.05;;
58089;SDS011;45149;50.976;6.120;2022-12-19T05:06:40;128.85;;;94.88;;
58089;SDS011;45149;50.976;6.120;2022-12-19T05:09:06;129.85;;;94.75;;
58089;SDS011;45149;50.976;6.120;2022-12-19T05:11:33;125.95;;;93.90;;
58089;SDS011;45149;50.976;6.120;2022-12-19T05:13:59;126.70;;;93.03;;
58089;SDS011;45149;50.976;6.120;2022-12-19T05:16:24;128.68;;;93.80;;
58089;SDS011;45149;50.976;6.120;2022-12-19T05:18:49;121.85;;;91.75;;
58089;SDS011;45149;50.976;6.120;2022-12-19T05:21:15;118.20;;;90.97;;
58089;SDS011;45149;50.976;6.120;2022-12-19T05:23:40;121.15;;;91.72;;
58089;SDS011;45149;50.976;6.120;2022-12-19T05:26:06;121.20;;;88.60;;
58089;SDS011;45149;50.976;6.120;2022-12-19T05:28:31;121.22;;;90.75;;
58089;SDS011;45149;50.976;6.120;2022-12-19T05:31:11;121.20;;;87.97;;
58089;SDS011;45149;50.976;6.120;2022-12-19T05:33:38;118.00;;;87.40;;
58089;SDS011;45149;50.976;6.120;2022-12-19T05:36:05;117.30;;;87.45;;
58089;SDS011;45149;50.976;6.120;2022-12-19T05:38:30;115.40;;;87.35;;
58089;SDS011;45149;50.976;6.120;2022-12-19T05:40:56;112.40;;;85.53;;
58089;SDS011;45149;50.976;6.120;2022-12-19T05:43:22;118.07;;;87.63;;
58089;SDS011;45149;50.976;6.120;2022-12-19T05:45:47;110.82;;;84.15;;
58089;SDS011;45149;50.976;6.120;2022-12-19T05:48:13;110.78;;;83.32;;
58089;SDS011;45149;50.976;6.120;2022-12-19T05:50:38;111.32;;;83.60;;
58089;SDS011;45149;50.976;6.120;2022-12-19T05:53:04;107.72;;;81.50;;
58089;SDS011;45149;50.976;6.120;2022-12-19T05:55:29;108.03;;;81.70;;
58089;SDS011;45149;50.976;6.120;2022-12-19T05:57:54;104.65;;;79.45;;
58089;SDS011;45149;50.976;6.120;2022-12-19T06:00:20;104.70;;;81.22;;
58089;SDS011;45149;50.976;6.120;2022-12-19T06:02:46;107.50;;;81.05;;
58089;SDS011;45149;50.976;6.120;2022-12-19T06:05:11;105.68;;;80.63;;
58089;SDS011;45149;50.976;6.120;2022-12-19T06:07:37;105.43;;;80.05;;
58089;SDS011;45149;50.976;6.120;2022-12-19T06:10:02;103.22;;;79.05;;
58089;SDS011;45149;50.976;6.120;2022-12-19T06:12:28;101.47;;;76.05;;
58089;SDS011;45149;50.976;6.120;2022-12-19T06:14:54;99.63;;;77.45;;
58089;SDS011;45149;50.976;6.120;2022-12-19T06:17:19;100.75;;;77.28;;
58089;SDS011;45149;50.976;6.120;2022-12-19T06:19:44;97.95;;;75.38;;
58089;SDS011;45149;50.976;6.120;2022-12-19T06:22:11;96.72;;;75.35;;
58089;SDS011;45149;50.976;6.120;2022-12-19T06:24:36;99.28;;;76.22;;
58089;SDS011;45149;50.976;6.120;2022-12-19T06:27:02;93.00;;;73.40;;
58089;SDS011;45149;50.976;6.120;2022-12-19T06:29:27;94.03;;;72.95;;
58089;SDS011;45149;50.976;6.120;2022-12-19T06:31:52;90.40;;;71.30;;
58089;SDS011;45149;50.976;6.120;2022-12-19T06:34:18;82.88;;;63.20;;
58089;SDS011;45149;50.976;6.120;2022-12-19T06:36:43;66.25;;;51.15;;
58089;SDS011;45149;50.976;6.120;2022-12-19T06:39:11;59.10;;;44.95;;
58089;SDS011;45149;50.976;6.120;2022-12-19T06:41:38;55.10;;;42.92;;
58089;SDS011;45149;50.976;6.120;2022-12-19T06:44:22;53.08;;;41.33;;
58089;SDS011;45149;50.976;6.120;2022-12-19T06:46:48;50.28;;;39.72;;
58089;SDS011;45149;50.976;6.120;2022-12-19T06:49:13;52.20;;;40.30;;
58089;SDS011;45149;50.976;6.120;2022-12-19T06:51:38;51.05;;;40.25;;
58089;SDS011;45149;50.976;6.120;2022-12-19T06:54:04;50.97;;;40.50;;
58089;SDS011;45149;50.976;6.120;2022-12-19T06:56:33;48.17;;;39.03;;
58089;SDS011;45149;50.976;6.120;2022-12-19T06:59:00;49.05;;;38.58;;
58089;SDS011;45149;50.976;6.120;2022-12-19T07:04:12;47.97;;;38.13;;
58089;SDS011;45149;50.976;6.120;2022-12-19T07:06:43;50.60;;;39.13;;
58089;SDS011;45149;50.976;6.120;2022-12-19T07:09:08;50.05;;;38.35;;
58089;SDS011;45149;50.976;6.120;2022-12-19T07:11:34;46.22;;;36.88;;
58089;SDS011;45149;50.976;6.120;2022-12-19T07:13:59;46.90;;;37.28;;
58089;SDS011;45149;50.976;6.120;2022-12-19T07:16:25;47.35;;;37.03;;
58089;SDS011;45149;50.976;6.120;2022-12-19T07:18:52;45.33;;;36.03;;
58089;SDS011;45149;50.976;6.120;2022-12-19T07:21:17;45.97;;;36.45;;
58089;SDS011;45149;50.976;6.120;2022-12-19T07:23:43;45.22;;;36.35;;
58089;SDS011;45149;50.976;6.120;2022-12-19T07:26:09;45.90;;;36.35;;
58089;SDS011;45149;50.976;6.120;2022-12-19T07:28:34;45.75;;;35.75;;
58089;SDS011;45149;50.976;6.120;2022-12-19T07:31:01;44.75;;;35.97;;
58089;SDS011;45149;50.976;6.120;2022-12-19T07:33:27;43.22;;;35.03;;
58089;SDS011;45149;50.976;6.120;2022-12-19T07:35:52;45.05;;;36.00;;
58089;SDS011;45149;50.976;6.120;2022-12-19T07:38:17;41.92;;;34.28;;
58089;SDS011;45149;50.976;6.120;2022-12-19T07:40:43;41.75;;;34.38;;
58089;SDS011;45149;50.976;6.120;2022-12-19T07:43:08;44.88;;;35.30;;
58089;SDS011;45149;50.976;6.120;2022-12-19T07:45:35;41.03;;;33.35;;
58089;SDS011;45149;50.976;6.120;2022-12-19T07:48:02;45.05;;;35.25;;
58089;SDS011;45149;50.976;6.120;2022-12-19T07:50:29;43.05;;;34.20;;
58089;SDS011;45149;50.976;6.120;2022-12-19T07:52:56;41.28;;;32.65;;
58089;SDS011;45149;50.976;6.120;2022-12-19T07:55:22;41.38;;;33.22;;
58089;SDS011;45149;50.976;6.120;2022-12-19T07:57:47;38.63;;;31.92;;
58089;SDS011;45149;50.976;6.120;2022-12-19T08:00:13;39.45;;;32.47;;
58089;SDS011;45149;50.976;6.120;2022-12-19T08:02:38;39.25;;;31.17;;
58089;SDS011;45149;50.976;6.120;2022-12-19T08:05:04;38.65;;;31.75;;
58089;SDS011;45149;50.976;6.120;2022-12-19T08:07:30;39.92;;;32.10;;
58089;SDS011;45149;50.976;6.120;2022-12-19T08:09:55;38.38;;;31.55;;
58089;SDS011;45149;50.976;6.120;2022-12-19T08:12:21;38.53;;;31.58;;
58089;SDS011;45149;50.976;6.120;2022-12-19T08:14:46;37.47;;;30.92;;
58089;SDS011;45149;50.976;6.120;2022-12-19T08:17:11;37.53;;;30.75;;
58089;SDS011;45149;50.976;6.120;2022-12-19T08:19:37;39.45;;;31.35;;
58089;SDS011;45149;50.976;6.120;2022-12-19T08:22:02;36.88;;;30.67;;
58089;SDS011;45149;50.976;6.120;2022-12-19T08:24:27;38.10;;;30.27;;
58089;SDS011;45149;50.976;6.120;2022-12-19T08:26:54;37.92;;;29.98;;
58089;SDS011;45149;50.976;6.120;2022-12-19T08:29:20;36.55;;;29.70;;
58089;SDS011;45149;50.976;6.120;2022-12-19T08:31:45;36.08;;;28.80;;
58089;SDS011;45149;50.976;6.120;2022-12-19T08:34:11;34.78;;;28.33;;
58089;SDS011;45149;50.976;6.120;2022-12-19T08:36:36;35.47;;;29.25;;
58089;SDS011;45149;50.976;6.120;2022-12-19T08:39:03;34.50;;;28.35;;
58089;SDS011;45149;50.976;6.120;2022-12-19T08:41:28;34.25;;;28.35;;
58089;SDS011;45149;50.976;6.120;2022-12-19T08:43:54;35.50;;;28.73;;
58089;SDS011;45149;50.976;6.120;2022-12-19T08:46:19;35.83;;;28.02;;
58089;SDS011;45149;50.976;6.120;2022-12-19T08:48:45;33.20;;;27.13;;
58089;SDS011;45149;50.976;6.120;2022-12-19T08:51:11;34.30;;;27.63;;
58089;SDS011;45149;50.976;6.120;2022-12-19T08:53:38;33.83;;;27.63;;
58089;SDS011;45149;50.976;6.120;2022-12-19T08:58:32;33.13;;;27.23;;
58089;SDS011;45149;50.976;6.120;2022-12-19T09:00:58;30.60;;;25.80;;
58089;SDS011;45149;50.976;6.120;2022-12-19T09:03:24;33.17;;;26.52;;
58089;SDS011;45149;50.976;6.120;2022-12-19T09:06:09;30.30;;;25.90;;
58089;SDS011;45149;50.976;6.120;2022-12-19T09:08:35;31.73;;;25.50;;
58089;SDS011;45149;50.976;6.120;2022-12-19T09:11:03;30.95;;;25.77;;
58089;SDS011;45149;50.976;6.120;2022-12-19T09:13:30;31.70;;;25.90;;
58089;SDS011;45149;50.976;6.120;2022-12-19T09:16:03;30.83;;;24.95;;
58089;SDS011;45149;50.976;6.120;2022-12-19T09:18:44;29.92;;;24.98;;
58089;SDS011;45149;50.976;6.120;2022-12-19T09:21:11;31.92;;;25.55;;
58089;SDS011;45149;50.976;6.120;2022-12-19T09:23:37;29.27;;;24.80;;
58089;SDS011;45149;50.976;6.120;2022-12-19T09:26:04;29.13;;;23.45;;
58089;SDS011;45149;50.976;6.120;2022-12-19T09:28:32;28.95;;;23.25;;
58089;SDS011;45149;50.976;6.120;2022-12-19T09:30:59;27.80;;;24.55;;
58089;SDS011;45149;50.976;6.120;2022-12-19T09:33:27;29.15;;;23.90;;
58089;SDS011;45149;50.976;6.120;2022-12-19T09:35:53;27.30;;;23.55;;
58089;SDS011;45149;50.976;6.120;2022-12-19T09:38:21;28.67;;;23.77;;
58089;SDS011;45149;50.976;6.120;2022-12-19T09:43:30;27.98;;;22.90;;
58089;SDS011;45149;50.976;6.120;2022-12-19T09:46:17;26.65;;;22.23;;
58089;SDS011;45149;50.976;6.120;2022-12-19T09:48:44;27.63;;;22.77;;
58089;SDS011;45149;50.976;6.120;2022-12-19T09:51:33;28.35;;;23.60;;
58089;SDS011;45149;50.976;6.120;2022-12-19T09:54:11;27.05;;;22.02;;
58089;SDS011;45149;50.976;6.120;2022-12-19T09:56:42;26.85;;;22.42;;
58089;SDS011;45149;50.976;6.120;2022-12-19T10:04:48;24.33;;;20.45;;
58089;SDS011;45149;50.976;6.120;2022-12-19T10:07:18;24.80;;;21.13;;
58089;SDS011;45149;50.976;6.120;2022-12-19T10:09:44;27.02;;;21.85;;
58089;SDS011;45149;50.976;6.120;2022-12-19T10:12:29;23.88;;;20.95;;
58089;SDS011;45149;50.976;6.120;2022-12-19T10:20:53;24.75;;;20.08;;
58089;SDS011;45149;50.976;6.120;2022-12-19T10:26:18;24.90;;;20.20;;
58089;SDS011;45149;50.976;6.120;2022-12-19T10:29:11;22.98;;;19.17;;
58089;SDS011;45149;50.976;6.120;2022-12-19T10:31:54;24.58;;;19.95;;
58089;SDS011;45149;50.976;6.120;2022-12-19T10:34:40;23.42;;;19.60;;
58089;SDS011;45149;50.976;6.120;2022-12-19T10:42:32;22.92;;;19.33;;
58089;SDS011;45149;50.976;6.120;2022-12-19T10:45:08;22.90;;;19.20;;
58089;SDS011;45149;50.976;6.120;2022-12-19T10:47:39;22.25;;;18.65;;
58089;SDS011;45149;50.976;6.120;2022-12-19T10:50:04;22.02;;;18.10;;
58089;SDS011;45149;50.976;6.120;2022-12-19T10:52:39;20.92;;;18.30;;
58089;SDS011;45149;50.976;6.120;2022-12-19T10:56:00;21.70;;;18.30;;
58089;SDS011;45149;50.976;6.120;2022-12-19T10:58:20;21.88;;;18.17;;
58089;SDS011;45149;50.976;6.120;2022-12-19T11:03:52;20.15;;;17.73;;
58089;SDS011;45149;50.976;6.120;2022-12-19T11:06:39;21.65;;;17.50;;
58089;SDS011;45149;50.976;6.120;2022-12-19T11:12:00;20.02;;;17.02;;
58089;SDS011;45149;50.976;6.120;2022-12-19T11:14:33;19.95;;;16.73;;
58089;SDS011;45149;50.976;6.120;2022-12-19T11:16:59;20.42;;;17.75;;
58089;SDS011;45149;50.976;6.120;2022-12-19T11:19:33;19.92;;;17.38;;
58089;SDS011;45149;50.976;6.120;2022-12-19T11:22:03;19.60;;;16.52;;
58089;SDS011;45149;50.976;6.120;2022-12-19T11:24:42;18.77;;;16.38;;
58089;SDS011;45149;50.976;6.120;2022-12-19T11:27:45;19.50;;;16.67;;
58089;SDS011;45149;50.976;6.120;2022-12-19T11:30:21;17.95;;;15.73;;
58089;SDS011;45149;50.976;6.120;2022-12-19T11:32:48;18.98;;;16.45;;
58089;SDS011;45149;50.976;6.120;2022-12-19T11:35:45;19.30;;;16.42;;
58089;SDS011;45149;50.976;6.120;2022-12-19T11:38:35;18.05;;;15.75;;
58089;SDS011;45149;50.976;6.120;2022-12-19T11:41:03;19.13;;;16.42;;
58089;SDS011;45149;50.976;6.120;2022-12-19T11:44:01;18.00;;;16.05;;
58089;SDS011;45149;50.976;6.120;2022-12-19T11:46:40;18.30;;;15.75;;
58089;SDS011;45149;50.976;6.120;2022-12-19T11:56:54;17.02;;;15.05;;
58089;SDS011;45149;50.976;6.120;2022-12-19T11:59:23;16.85;;;14.82;;
58089;SDS011;45149;50.976;6.120;2022-12-19T12:07:16;18.45;;;14.68;;
58089;SDS011;45149;50.976;6.120;2022-12-19T12:31:07;15.65;;;13.10;;
58089;SDS011;45149;50.976;6.120;2022-12-19T12:33:52;16.00;;;13.48;;
58089;SDS011;45149;50.976;6.120;2022-12-19T12:39:46;15.73;;;13.25;;
58089;SDS011;45149;50.976;6.120;2022-12-19T12:42:45;15.65;;;13.32;;
58089;SDS011;45149;50.976;6.120;2022-12-19T12:45:40;15.55;;;13.48;;
58089;SDS011;45149;50.976;6.120;2022-12-19T12:48:18;15.07;;;12.80;;
58089;SDS011;45149;50.976;6.120;2022-12-19T12:50:45;14.05;;;12.55;;
58089;SDS011;45149;50.976;6.120;2022-12-19T12:53:12;15.27;;;12.60;;
58089;SDS011;45149;50.976;6.120;2022-12-19T12:55:41;14.05;;;12.55;;
58089;SDS011;45149;50.976;6.120;2022-12-19T13:04:40;13.75;;;11.85;;
58089;SDS011;45149;50.976;6.120;2022-12-19T13:06:39;14.30;;;12.10;;
58089;SDS011;45149;50.976;6.120;2022-12-19T13:11:49;13.75;;;12.25;;
58089;SDS011;45149;50.976;6.120;2022-12-19T13:19:36;13.48;;;11.65;;
58089;SDS011;45149;50.976;6.120;2022-12-19T13:45:54;11.80;;;10.32;;
58089;SDS011;45149;50.976;6.120;2022-12-19T13:51:39;12.25;;;10.57;;
58089;SDS011;45149;50.976;6.120;2022-12-19T13:54:20;11.65;;;10.18;;
58089;SDS011;45149;50.976;6.120;2022-12-19T13:56:51;11.32;;;10.10;;
58089;SDS011;45149;50.976;6.120;2022-12-19T13:59:17;11.40;;;9.98;;
58089;SDS011;45149;50.976;6.120;2022-12-19T14:01:45;12.32;;;10.45;;
58089;SDS011;45149;50.976;6.120;2022-12-19T14:04:23;11.73;;;10.48;;
58089;SDS011;45149;50.976;6.120;2022-12-19T14:06:54;11.52;;;10.30;;
58089;SDS011;45149;50.976;6.120;2022-12-19T14:09:31;11.32;;;10.13;;
58089;SDS011;45149;50.976;6.120;2022-12-19T14:12:00;11.25;;;9.93;;
58089;SDS011;45149;50.976;6.120;2022-12-19T14:14:27;11.20;;;9.82;;
58089;SDS011;45149;50.976;6.120;2022-12-19T14:17:12;12.52;;;10.73;;
58089;SDS011;45149;50.976;6.120;2022-12-19T14:19:44;12.05;;;10.02;;
58089;SDS011;45149;50.976;6.120;2022-12-19T14:24:52;11.60;;;9.75;;
58089;SDS011;45149;50.976;6.120;2022-12-19T14:27:19;11.32;;;9.68;;
58089;SDS011;45149;50.976;6.120;2022-12-19T14:30:17;10.20;;;9.10;;
58089;SDS011;45149;50.976;6.120;2022-12-19T14:32:45;10.57;;;9.43;;
58089;SDS011;45149;50.976;6.120;2022-12-19T14:35:17;10.73;;;9.57;;
58089;SDS011;45149;50.976;6.120;2022-12-19T14:37:46;10.60;;;8.90;;
58089;SDS011;45149;50.976;6.120;2022-12-19T14:40:37;11.32;;;9.27;;
58089;SDS011;45149;50.976;6.120;2022-12-19T14:43:03;10.55;;;9.02;;
58089;SDS011;45149;50.976;6.120;2022-12-19T14:45:51;9.95;;;8.95;;
58089;SDS011;45149;50.976;6.120;2022-12-19T14:51:02;11.02;;;9.13;;
58089;SDS011;45149;50.976;6.120;2022-12-19T14:53:29;9.70;;;8.25;;
58089;SDS011;45149;50.976;6.120;2022-12-19T14:56:28;10.20;;;9.07;;
58089;SDS011;45149;50.976;6.120;2022-12-19T14:58:53;11.10;;;9.23;;
58089;SDS011;45149;50.976;6.120;2022-12-19T15:01:22;10.25;;;9.07;;
58089;SDS011;45149;50.976;6.120;2022-12-19T15:06:25;10.60;;;8.82;;
58089;SDS011;45149;50.976;6.120;2022-12-19T15:08:53;9.75;;;8.18;;
58089;SDS011;45149;50.976;6.120;2022-12-19T15:11:26;10.30;;;8.95;;
58089;SDS011;45149;50.976;6.120;2022-12-19T15:14:12;11.32;;;9.35;;
58089;SDS011;45149;50.976;6.120;2022-12-19T15:16:37;9.82;;;8.82;;
58089;SDS011;45149;50.976;6.120;2022-12-19T15:19:04;9.85;;;8.27;;
58089;SDS011;45149;50.976;6.120;2022-12-19T15:21:35;9.10;;;7.95;;
58089;SDS011;45149;50.976;6.120;2022-12-19T15:24:01;10.52;;;8.50;;
58089;SDS011;45149;50.976;6.120;2022-12-19T15:26:28;9.90;;;8.18;;
58089;SDS011;45149;50.976;6.120;2022-12-19T15:28:56;8.68;;;7.72;;
58089;SDS011;45149;50.976;6.120;2022-12-19T15:31:35;9.70;;;8.55;;
58089;SDS011;45149;50.976;6.120;2022-12-19T15:34:11;9.27;;;7.85;;
58089;SDS011;45149;50.976;6.120;2022-12-19T15:36:46;9.68;;;8.20;;
58089;SDS011;45149;50.976;6.120;2022-12-19T15:39:12;8.88;;;7.85;;
58089;SDS011;45149;50.976;6.120;2022-12-19T15:41:38;8.82;;;7.80;;
58089;SDS011;45149;50.976;6.120;2022-12-19T15:44:06;8.35;;;7.38;;
58089;SDS011;45149;50.976;6.120;2022-12-19T15:46:38;9.23;;;7.72;;
58089;SDS011;45149;50.976;6.120;2022-12-19T15:49:03;8.98;;;7.93;;
58089;SDS011;45149;50.976;6.120;2022-12-19T15:51:28;8.57;;;7.57;;
58089;SDS011;45149;50.976;6.120;2022-12-19T15:53:54;8.48;;;7.38;;
58089;SDS011;45149;50.976;6.120;2022-12-19T15:56:28;8.75;;;7.07;;
58089;SDS011;45149;50.976;6.120;2022-12-19T15:58:57;8.75;;;7.85;;
58089;SDS011;45149;50.976;6.120;2022-12-19T16:01:25;9.18;;;7.68;;
58089;SDS011;45149;50.976;6.120;2022-12-19T16:03:51;9.23;;;7.70;;
58089;SDS011;45149;50.976;6.120;2022-12-19T16:06:17;8.40;;;7.50;;
58089;SDS011;45149;50.976;6.120;2022-12-19T16:08:42;8.63;;;7.63;;
58089;SDS011;45149;50.976;6.120;2022-12-19T16:11:14;8.77;;;7.78;;
58089;SDS011;45149;50.976;6.120;2022-12-19T16:13:42;8.48;;;7.50;;
58089;SDS011;45149;50.976;6.120;2022-12-19T16:16:10;7.50;;;6.70;;
58089;SDS011;45149;50.976;6.120;2022-12-19T16:18:36;8.30;;;7.32;;
58089;SDS011;45149;50.976;6.120;2022-12-19T16:21:01;7.85;;;7.00;;
58089;SDS011;45149;50.976;6.120;2022-12-19T16:23:26;8.07;;;7.10;;
58089;SDS011;45149;50.976;6.120;2022-12-19T16:25:52;8.48;;;7.20;;
58089;SDS011;45149;50.976;6.120;2022-12-19T16:28:27;8.13;;;7.18;;
58089;SDS011;45149;50.976;6.120;2022-12-19T16:30:55;8.18;;;7.05;;
58089;SDS011;45149;50.976;6.120;2022-12-19T16:33:22;8.40;;;7.20;;
58089;SDS011;45149;50.976;6.120;2022-12-19T16:35:50;6.90;;;5.40;;
58089;SDS011;45149;50.976;6.120;2022-12-19T16:38:16;4.60;;;3.60;;
58089;SDS011;45149;50.976;6.120;2022-12-19T16:40:42;5.18;;;3.88;;
58089;SDS011;45149;50.976;6.120;2022-12-19T16:43:27;5.50;;;3.88;;
58089;SDS011;45149;50.976;6.120;2022-12-19T16:45:55;150.43;;;103.05;;
58089;SDS011;45149;50.976;6.120;2022-12-19T16:48:22;34.45;;;26.60;;
58089;SDS011;45149;50.976;6.120;2022-12-19T16:50:50;18.13;;;14.30;;
58089;SDS011;45149;50.976;6.120;2022-12-19T16:53:15;8.85;;;5.47;;
58089;SDS011;45149;50.976;6.120;2022-12-19T16:55:41;43.92;;;29.02;;
58089;SDS011;45149;50.976;6.120;2022-12-19T16:58:08;43.80;;;28.35;;
58089;SDS011;45149;50.976;6.120;2022-12-19T17:00:40;42.80;;;28.27;;
58089;SDS011;45149;50.976;6.120;2022-12-19T17:03:07;43.13;;;27.75;;
58089;SDS011;45149;50.976;6.120;2022-12-19T17:05:42;42.97;;;26.95;;
58089;SDS011;45149;50.976;6.120;2022-12-19T17:08:11;251.13;;;195.40;;